createdAt,value
2019-01-18T00:03:52.015Z,2.10
2019-01-18T00:08:53.119Z,2.60
2019-01-18T00:13:54.210Z,2.00
2019-01-18T00:18:55.308Z,2.37
2019-01-18T00:23:56.407Z,2.57
2019-01-18T00:28:57.504Z,2.13
2019-01-18T00:33:58.599Z,2.17
2019-01-18T00:38:59.686Z,2.17
2019-01-18T00:44:00.903Z,2.70
2019-01-18T00:49:02.018Z,3.20
2019-01-18T00:54:03.331Z,1.90
2019-01-18T00:59:04.460Z,2.03
2019-01-18T01:04:05.678Z,2.47
2019-01-18T01:09:06.874Z,2.23
2019-01-18T01:14:07.971Z,2.47
2019-01-18T01:19:09.166Z,2.10
2019-01-18T01:24:10.370Z,2.63
2019-01-18T01:29:11.467Z,2.37
2019-01-18T01:34:12.669Z,1.90
2019-01-18T01:39:13.762Z,1.97
2019-01-18T01:44:15.564Z,2.10
2019-01-18T01:49:17.091Z,2.20
2019-01-18T01:54:18.230Z,2.10
2019-01-18T01:59:19.327Z,2.70
2019-01-18T02:04:20.446Z,2.70
2019-01-18T02:09:21.547Z,2.07
2019-01-18T02:14:22.634Z,2.40
2019-01-18T02:19:23.735Z,2.83
2019-01-18T02:24:24.834Z,2.40
2019-01-18T02:29:26.013Z,2.57
2019-01-18T02:34:27.111Z,1.97
2019-01-18T02:39:28.203Z,2.57
2019-01-18T02:44:29.326Z,3.13
2019-01-18T02:49:30.416Z,2.77
2019-01-18T02:54:31.530Z,2.83
2019-01-18T02:59:32.626Z,3.03
2019-01-18T03:04:33.748Z,2.70
2019-01-18T03:09:34.840Z,2.90
2019-01-18T03:14:36.041Z,3.30
2019-01-18T03:19:37.133Z,2.50
2019-01-18T03:24:38.519Z,2.67
2019-01-18T03:29:39.612Z,3.23
2019-01-18T03:34:40.713Z,2.40
2019-01-18T03:39:41.802Z,2.80
2019-01-18T03:44:42.888Z,3.40
2019-01-18T03:49:43.980Z,2.90
2019-01-18T03:54:45.091Z,3.10
2019-01-18T03:59:46.179Z,2.70
2019-01-18T04:04:47.328Z,3.20
2019-01-18T04:09:48.519Z,3.03
2019-01-18T04:14:49.625Z,3.63
2019-01-18T04:19:50.829Z,2.90
2019-01-18T04:24:51.916Z,3.30
2019-01-18T04:29:53.011Z,3.37
2019-01-18T04:34:54.110Z,3.27
2019-01-18T04:39:55.187Z,3.63
2019-01-18T04:44:56.370Z,3.43
2019-01-18T04:49:57.580Z,3.10
2019-01-18T04:54:58.840Z,3.00
2019-01-18T04:59:59.938Z,3.27
2019-01-18T05:05:01.046Z,3.70
2019-01-18T05:10:05.852Z,2.87
2019-01-18T05:15:10.248Z,3.20
2019-01-18T05:20:11.647Z,2.83
2019-01-18T05:25:13.172Z,3.00
2019-01-18T05:30:25.776Z,4.07
2019-01-18T05:35:27.075Z,3.17
2019-01-18T05:40:28.159Z,3.33
2019-01-18T05:45:29.356Z,2.60
2019-01-18T05:50:30.455Z,3.30
2019-01-18T05:55:31.667Z,3.30
2019-01-18T06:00:34.966Z,2.90
2019-01-18T06:05:38.892Z,3.17
2019-01-18T06:10:39.978Z,3.03
2019-01-18T06:15:41.089Z,3.47
2019-01-18T06:20:42.195Z,3.00
2019-01-18T06:25:43.300Z,4.30
2019-01-18T06:30:44.536Z,5.30
2019-01-18T06:35:47.567Z,3.90
2019-01-18T06:40:49.779Z,3.57
2019-01-18T06:45:50.867Z,3.93
2019-01-18T06:50:51.969Z,4.20
2019-01-18T06:55:53.074Z,4.40
2019-01-18T07:00:54.171Z,5.72
2019-01-18T07:05:55.284Z,5.93
2019-01-18T07:10:56.381Z,5.67
2019-01-18T07:15:57.685Z,5.43
2019-01-18T07:20:58.793Z,5.80
2019-01-18T07:25:59.898Z,7.23
2019-01-18T07:31:01.201Z,6.70
2019-01-18T07:36:02.706Z,6.90
2019-01-18T07:41:03.830Z,6.63
2019-01-18T07:46:05.049Z,7.20
2019-01-18T07:51:06.426Z,5.73
2019-01-18T07:56:07.648Z,5.53
2019-01-18T08:01:08.831Z,5.77
2019-01-18T08:06:09.932Z,5.20
2019-01-18T08:11:11.038Z,5.63
2019-01-18T08:16:12.138Z,5.07
2019-01-18T08:21:13.236Z,5.17
2019-01-18T08:26:14.357Z,5.87
2019-01-18T08:31:15.555Z,6.67
2019-01-18T08:36:16.884Z,9.17
2019-01-18T08:41:18.071Z,4.80
2019-01-18T08:46:19.266Z,6.57
2019-01-18T08:51:20.483Z,6.60
2019-01-18T08:56:21.706Z,6.33
2019-01-18T09:01:22.808Z,6.17
2019-01-18T09:06:23.943Z,5.60
2019-01-18T09:11:25.031Z,8.53
2019-01-18T09:16:26.122Z,5.83
2019-01-18T09:21:27.222Z,5.97
2019-01-18T09:26:28.350Z,6.80
2019-01-18T09:31:29.439Z,4.53
2019-01-18T09:36:30.538Z,4.93
2019-01-18T09:41:31.624Z,3.63
2019-01-18T09:46:32.722Z,3.80
2019-01-18T09:51:33.950Z,4.63
2019-01-18T09:56:35.060Z,37.10
2019-01-18T10:01:36.163Z,5.20
2019-01-18T10:06:37.279Z,4.00
2019-01-18T10:11:38.367Z,3.80
2019-01-18T10:16:39.469Z,3.50
2019-01-18T10:21:40.665Z,3.60
2019-01-18T10:26:41.776Z,4.30
2019-01-18T10:31:42.878Z,3.50
2019-01-18T10:36:43.963Z,3.33
2019-01-18T10:41:45.051Z,3.13
2019-01-18T10:46:46.270Z,3.37
2019-01-18T10:51:47.503Z,3.10
2019-01-18T10:56:48.679Z,4.00
2019-01-18T11:01:49.781Z,3.60
2019-01-18T11:06:51.031Z,3.30
2019-01-18T11:11:52.219Z,3.33
2019-01-18T11:16:53.319Z,3.30
2019-01-18T11:21:54.524Z,3.60
2019-01-18T11:26:55.617Z,3.43
2019-01-18T11:31:56.739Z,3.70
2019-01-18T11:36:58.235Z,3.87
2019-01-18T11:41:59.556Z,3.80
2019-01-18T11:47:00.748Z,6.67
2019-01-18T11:52:01.943Z,5.60
2019-01-18T11:57:03.261Z,4.10
2019-01-18T12:02:04.499Z,4.10
2019-01-18T12:07:05.621Z,3.70
2019-01-18T12:12:06.718Z,3.90
2019-01-18T12:17:08.184Z,4.10
2019-01-18T12:22:09.391Z,3.37
2019-01-18T12:27:10.486Z,3.30
2019-01-18T12:32:11.629Z,3.77
2019-01-18T12:37:12.846Z,3.50
2019-01-18T12:42:13.935Z,3.60
2019-01-18T12:47:15.071Z,3.70
2019-01-18T12:52:16.209Z,4.13
2019-01-18T12:57:17.534Z,4.10
2019-01-18T13:02:18.730Z,3.80
2019-01-18T13:07:19.870Z,4.27
2019-01-18T13:12:20.953Z,3.90
2019-01-18T13:17:22.054Z,4.00
2019-01-18T13:22:26.068Z,3.70
2019-01-18T13:27:26.401Z,2.60
2019-01-18T13:32:27.837Z,1.90
2019-01-18T13:37:28.967Z,2.07
2019-01-18T13:42:30.042Z,1.90
2019-01-18T13:47:31.155Z,3.13
2019-01-18T13:52:32.244Z,2.67
2019-01-18T13:57:33.372Z,2.30
2019-01-18T14:02:34.525Z,1.90
2019-01-18T14:07:36.727Z,2.00
2019-01-18T14:12:37.947Z,2.10
2019-01-18T14:17:39.066Z,2.90
2019-01-18T14:22:40.464Z,1.97
2019-01-18T14:27:41.677Z,2.73
2019-01-18T14:32:43.815Z,2.93
2019-01-18T14:37:45.152Z,2.97
2019-01-18T14:42:47.860Z,3.07
2019-01-18T14:47:49.018Z,3.43
2019-01-18T14:52:50.211Z,3.40
2019-01-18T14:57:51.521Z,3.30
2019-01-18T15:02:52.745Z,2.83
2019-01-18T15:07:54.088Z,3.37
2019-01-18T15:12:59.001Z,3.63
2019-01-18T15:18:00.147Z,3.00
2019-01-18T15:23:01.461Z,2.60
2019-01-18T15:28:03.402Z,3.60
2019-01-18T15:33:09.120Z,4.20
2019-01-18T15:38:07.716Z,4.03
2019-01-18T15:43:10.123Z,3.87
2019-01-18T15:48:11.328Z,3.60
2019-01-18T15:53:12.647Z,3.80
2019-01-18T15:58:13.878Z,3.73
2019-01-18T16:03:16.093Z,3.43
2019-01-18T16:08:17.611Z,3.37
2019-01-18T16:13:18.855Z,6.70
2019-01-18T16:18:22.380Z,7.50
2019-01-18T16:23:23.656Z,8.80
2019-01-18T16:28:24.795Z,6.07
2019-01-18T16:33:26.087Z,6.40
2019-01-18T16:38:27.184Z,6.73
2019-01-18T16:43:30.899Z,8.00
2019-01-18T16:48:32.043Z,7.47
2019-01-18T16:53:33.353Z,4.70
2019-01-18T16:58:34.499Z,4.50
2019-01-18T17:03:35.725Z,6.03
2019-01-18T17:08:37.541Z,7.13
2019-01-18T17:13:38.894Z,8.03
2019-01-18T17:18:40.402Z,10.90
2019-01-18T17:23:41.501Z,9.90
2019-01-18T17:28:42.648Z,9.90
2019-01-18T17:33:44.184Z,12.10
2019-01-18T17:38:53.104Z,10.17
2019-01-18T17:44:18.228Z,10.70
2019-01-18T17:49:52.446Z,10.60
2019-01-18T17:54:57.648Z,10.23
2019-01-18T18:00:07.503Z,9.73
2019-01-18T18:05:24.200Z,10.37
2019-01-18T18:10:35.848Z,9.23
2019-01-18T18:16:02.167Z,10.40
2019-01-18T18:21:19.448Z,10.00
2019-01-18T18:26:33.392Z,9.70
2019-01-18T18:31:59.479Z,9.67
2019-01-18T18:37:19.661Z,10.13
2019-01-18T18:42:41.247Z,11.23
2019-01-18T18:48:18.435Z,11.33
2019-01-18T18:53:41.539Z,13.47
2019-01-18T18:58:52.175Z,12.57
2019-01-18T19:04:00.187Z,9.50
2019-01-18T19:09:14.542Z,8.73
2019-01-18T19:14:22.192Z,7.17
2019-01-18T19:19:46.736Z,9.07
2019-01-18T19:25:03.983Z,9.73
2019-01-18T19:30:34.185Z,10.53
2019-01-18T19:35:54.027Z,8.50
2019-01-18T19:41:05.122Z,10.73
2019-01-18T19:46:22.251Z,10.33
2019-01-18T19:51:29.958Z,10.93
2019-01-18T19:56:41.035Z,12.37
2019-01-18T20:02:20.326Z,12.07
2019-01-18T20:07:48.308Z,9.93
2019-01-18T20:13:07.881Z,12.70
2019-01-18T20:18:27.761Z,10.17
2019-01-18T20:24:04.871Z,11.03
2019-01-18T20:29:30.983Z,12.30
2019-01-18T20:34:42.177Z,11.60
2019-01-18T20:40:02.538Z,9.67
2019-01-18T20:45:16.381Z,15.07
2019-01-18T20:50:54.834Z,9.37
2019-01-18T20:56:19.869Z,9.33
2019-01-18T21:01:42.722Z,8.57
2019-01-18T21:06:56.482Z,9.73
2019-01-18T21:12:04.369Z,11.43
2019-01-18T21:17:32.248Z,10.97
2019-01-18T21:22:58.477Z,12.83
2019-01-18T21:28:24.933Z,13.63
2019-01-18T21:33:42.148Z,17.67
2019-01-18T21:39:08.023Z,14.50
2019-01-18T21:44:29.968Z,15.77
2019-01-18T21:49:34.898Z,13.93
2019-01-18T21:54:54.479Z,12.70
2019-01-18T22:00:33.404Z,11.03
2019-01-18T22:05:56.556Z,11.67
2019-01-18T22:11:28.356Z,12.37
2019-01-18T22:16:51.387Z,11.33
2019-01-18T22:22:08.194Z,10.20
2019-01-18T22:27:25.430Z,10.33
2019-01-18T22:32:38.064Z,10.17
2019-01-18T22:37:51.771Z,11.03
2019-01-18T22:43:11.959Z,10.73
2019-01-18T22:48:26.045Z,11.03
2019-01-18T22:53:58.138Z,10.07
2019-01-18T22:59:03.210Z,11.13
2019-01-18T23:04:27.304Z,10.77
2019-01-18T23:09:53.548Z,10.63
2019-01-18T23:15:19.407Z,10.47
2019-01-18T23:20:47.059Z,10.83
2019-01-18T23:25:51.985Z,10.90
2019-01-18T23:30:56.909Z,10.40
2019-01-18T23:36:27.965Z,10.00
2019-01-18T23:41:52.340Z,11.53
2019-01-18T23:47:06.884Z,11.80
2019-01-18T23:52:14.613Z,11.53
2019-01-18T23:57:31.055Z,13.10
